Time;durP1;ratioP1;P1;durP2;ratioP2;P2;SDS_P1;SDS_P2;PMS_P1;PMS_P2;Temp;Humidity;BMP_temperature;BMP_pressure;BME280_temperature;BME280_humidity;BME280_pressure;Samples;Min_cycle;Max_cycle;Signal;HPM_P1;HPM_P2
2022/06/30 00:02:17;;;;;;;9.90;9.10;;;;;;;;;;5062384;28;24987;-46
2022/06/30 00:04:42;;;;;;;10.57;9.77;;;;;;;;;;5062250;28;24450;-46
2022/06/30 00:07:07;;;;;;;10.27;9.38;;;;;;;;;;5063600;28;24469;-46
2022/06/30 00:09:32;;;;;;;11.48;10.48;;;;;;;;;;5062403;28;25273;-46
2022/06/30 00:11:57;;;;;;;11.50;10.52;;;;;;;;;;5064429;28;24707;-46
2022/06/30 00:14:22;;;;;;;11.70;10.60;;;;;;;;;;5066449;28;24432;-46
2022/06/30 00:16:48;;;;;;;11.00;10.10;;;;;;;;;;5067528;28;24434;-47
2022/06/30 00:19:13;;;;;;;9.98;9.27;;;;;;;;;;5064168;28;24844;-47
2022/06/30 00:21:39;;;;;;;10.48;9.57;;;;;;;;;;5061835;28;24465;-47
2022/06/30 00:24:04;;;;;;;10.15;9.35;;;;;;;;;;5076224;28;24434;-46
2022/06/30 00:26:29;;;;;;;10.20;9.40;;;;;;;;;;5062990;28;24968;-47
2022/06/30 00:28:54;;;;;;;10.10;9.32;;;;;;;;;;5067658;28;24510;-46
2022/06/30 00:31:19;;;;;;;10.52;9.73;;;;;;;;;;5071823;28;24433;-47
2022/06/30 00:33:45;;;;;;;11.00;10.10;;;;;;;;;;5067293;28;24464;-46
2022/06/30 00:36:10;;;;;;;10.27;9.47;;;;;;;;;;5071576;28;24426;-46
2022/06/30 00:38:35;;;;;;;11.10;10.20;;;;;;;;;;5066393;28;24512;-46
2022/06/30 00:41:00;;;;;;;9.90;9.10;;;;;;;;;;5063689;28;24419;-47
2022/06/30 00:43:26;;;;;;;10.23;9.33;;;;;;;;;;5061511;28;24523;-49
2022/06/30 00:45:51;;;;;;;11.40;10.50;;;;;;;;;;5071240;28;24538;-48
2022/06/30 00:48:17;;;;;;;11.10;10.20;;;;;;;;;;5080375;28;24529;-48
2022/06/30 00:50:44;;;;;;;11.00;10.20;;;;;;;;;;5060168;28;24511;-48
2022/06/30 00:53:09;;;;;;;10.38;9.57;;;;;;;;;;5060171;28;24971;-47
2022/06/30 00:55:35;;;;;;;10.83;9.93;;;;;;;;;;5073959;28;24497;-47
2022/06/30 00:58:03;;;;;;;10.77;9.88;;;;;;;;;;5078778;28;24422;-47
2022/06/30 01:00:29;;;;;;;11.32;10.43;;;;;;;;;;5064252;28;24430;-48
2022/06/30 01:02:54;;;;;;;11.30;10.40;;;;;;;;;;5063643;28;24488;-48
2022/06/30 01:05:20;;;;;;;10.63;9.83;;;;;;;;;;5061867;28;24482;-52
2022/06/30 01:07:46;;;;;;;10.57;9.77;;;;;;;;;;5060578;28;24493;-47
2022/06/30 01:12:55;;;;;;;11.50;10.50;;;;;;;;;;5061036;28;24572;-48
2022/06/30 01:15:21;;;;;;;12.07;11.13;;;;;;;;;;5062922;28;24561;-47
2022/06/30 01:17:46;;;;;;;11.75;10.85;;;;;;;;;;5072626;28;24944;-47
2022/06/30 01:20:12;;;;;;;10.90;10.00;;;;;;;;;;5074267;28;24430;-47
2022/06/30 01:22:38;;;;;;;11.37;10.47;;;;;;;;;;5070709;28;24904;-46
2022/06/30 01:25:03;;;;;;;12.00;10.98;;;;;;;;;;5076397;28;24610;-47
2022/06/30 01:27:29;;;;;;;13.20;11.80;;;;;;;;;;5068487;28;24423;-47
2022/06/30 01:29:54;;;;;;;10.67;9.87;;;;;;;;;;5080340;28;25032;-48
2022/06/30 01:32:19;;;;;;;10.17;9.37;;;;;;;;;;5078361;28;25225;-48
2022/06/30 01:34:44;;;;;;;10.70;9.80;;;;;;;;;;5070314;28;24513;-47
2022/06/30 01:37:09;;;;;;;10.83;10.03;;;;;;;;;;5070497;28;25005;-48
2022/06/30 01:39:35;;;;;;;10.80;9.90;;;;;;;;;;5075445;28;24482;-47
2022/06/30 01:42:00;;;;;;;9.93;9.13;;;;;;;;;;5075469;28;24487;-48
2022/06/30 01:44:25;;;;;;;11.03;10.13;;;;;;;;;;5071757;28;24430;-47
2022/06/30 01:46:51;;;;;;;10.90;10.00;;;;;;;;;;5070046;28;24445;-48
2022/06/30 01:49:16;;;;;;;9.98;9.27;;;;;;;;;;5066969;28;24434;-47
2022/06/30 01:51:41;;;;;;;10.77;9.97;;;;;;;;;;5068921;28;25060;-47
2022/06/30 01:54:08;;;;;;;10.30;9.50;;;;;;;;;;5066355;28;24429;-47
2022/06/30 01:56:33;;;;;;;10.60;9.70;;;;;;;;;;5063863;28;24469;-47
2022/06/30 01:58:58;;;;;;;10.67;9.77;;;;;;;;;;5066290;28;24828;-48
2022/06/30 02:01:23;;;;;;;10.30;9.50;;;;;;;;;;5070329;28;24480;-48
2022/06/30 02:03:48;;;;;;;9.80;9.07;;;;;;;;;;5074509;28;24815;-48
2022/06/30 02:06:13;;;;;;;10.20;9.30;;;;;;;;;;5069549;28;24511;-48
2022/06/30 02:08:39;;;;;;;10.80;10.00;;;;;;;;;;5069428;28;25010;-47
2022/06/30 02:11:04;;;;;;;10.30;9.50;;;;;;;;;;5067018;28;24433;-48
2022/06/30 02:13:29;;;;;;;11.07;10.17;;;;;;;;;;5071628;28;24431;-47
2022/06/30 02:15:54;;;;;;;9.97;9.20;;;;;;;;;;5067397;28;24479;-46
2022/06/30 02:18:19;;;;;;;10.93;9.93;;;;;;;;;;5065549;28;24490;-46
2022/06/30 02:20:45;;;;;;;11.20;10.30;;;;;;;;;;5066820;28;24431;-47
2022/06/30 02:23:10;;;;;;;11.10;10.20;;;;;;;;;;5066979;28;24481;-46
2022/06/30 02:25:35;;;;;;;11.50;10.60;;;;;;;;;;5066694;28;24464;-46
2022/06/30 02:28:03;;;;;;;10.45;9.65;;;;;;;;;;5067467;28;24449;-46
2022/06/30 02:30:28;;;;;;;10.50;9.70;;;;;;;;;;5070060;28;24540;-46
2022/06/30 02:32:53;;;;;;;11.70;10.80;;;;;;;;;;5078440;28;24425;-46
2022/06/30 02:35:19;;;;;;;11.50;10.47;;;;;;;;;;5073768;28;24426;-46
2022/06/30 02:37:44;;;;;;;12.00;11.00;;;;;;;;;;5079159;28;24923;-47
2022/06/30 02:40:09;;;;;;;11.70;10.70;;;;;;;;;;5080826;28;25027;-46
2022/06/30 02:42:35;;;;;;;11.13;10.23;;;;;;;;;;5073941;28;25170;-47
2022/06/30 02:45:00;;;;;;;11.90;10.90;;;;;;;;;;5065612;28;24508;-47
2022/06/30 02:47:30;;;;;;;11.45;10.45;;;;;;;;;;5078520;28;24517;-45
2022/06/30 02:49:55;;;;;;;12.60;11.60;;;;;;;;;;5063297;28;24789;-46
2022/06/30 02:52:20;;;;;;;11.63;10.73;;;;;;;;;;5070677;28;25082;-48
2022/06/30 02:54:45;;;;;;;11.88;10.88;;;;;;;;;;5070119;28;24471;-47
2022/06/30 02:57:10;;;;;;;11.45;10.52;;;;;;;;;;5070367;28;24483;-47
2022/06/30 02:59:35;;;;;;;11.23;10.32;;;;;;;;;;5063671;28;24426;-47
2022/06/30 03:02:01;;;;;;;11.60;10.70;;;;;;;;;;5065455;28;24781;-49
2022/06/30 03:04:26;;;;;;;10.83;9.97;;;;;;;;;;5074466;28;24517;-48
2022/06/30 03:06:51;;;;;;;11.00;10.10;;;;;;;;;;5056322;28;24415;-48
2022/06/30 03:09:16;;;;;;;10.50;9.70;;;;;;;;;;5067565;28;24484;-47
2022/06/30 03:11:41;;;;;;;11.30;10.40;;;;;;;;;;5068916;28;24826;-47
2022/06/30 03:14:06;;;;;;;11.50;10.50;;;;;;;;;;5065634;28;24563;-48
2022/06/30 03:16:31;;;;;;;10.90;10.00;;;;;;;;;;5068385;28;24563;-47
2022/06/30 03:18:57;;;;;;;11.30;10.30;;;;;;;;;;5067373;28;24838;-47
2022/06/30 03:21:22;;;;;;;11.10;10.10;;;;;;;;;;5063558;28;24423;-47
2022/06/30 03:23:47;;;;;;;12.38;11.38;;;;;;;;;;5070324;28;24418;-46
2022/06/30 03:26:12;;;;;;;11.97;10.90;;;;;;;;;;5078136;28;24423;-47
2022/06/30 03:28:38;;;;;;;11.00;10.10;;;;;;;;;;5064874;28;24919;-47
2022/06/30 03:31:03;;;;;;;11.10;10.27;;;;;;;;;;5060449;28;25059;-47
2022/06/30 03:33:28;;;;;;;11.10;10.20;;;;;;;;;;5063115;28;24419;-47
2022/06/30 03:35:53;;;;;;;11.30;10.40;;;;;;;;;;5067187;28;24419;-46
2022/06/30 03:38:19;;;;;;;11.20;10.20;;;;;;;;;;5084498;28;24433;-46
2022/06/30 03:40:44;;;;;;;11.25;10.25;;;;;;;;;;5067899;28;24522;-46
2022/06/30 03:43:09;;;;;;;11.50;10.50;;;;;;;;;;5061435;28;24437;-47
2022/06/30 03:45:34;;;;;;;11.52;10.63;;;;;;;;;;5076957;28;24438;-47
2022/06/30 03:48:00;;;;;;;11.50;10.30;;;;;;;;;;5086479;28;24967;-47
2022/06/30 03:50:26;;;;;;;11.37;10.47;;;;;;;;;;5075660;28;24524;-47
2022/06/30 03:52:51;;;;;;;11.27;10.38;;;;;;;;;;5074836;28;24422;-47
2022/06/30 03:55:17;;;;;;;11.25;10.35;;;;;;;;;;5068334;28;24426;-48
2022/06/30 03:57:42;;;;;;;11.30;10.30;;;;;;;;;;5074518;28;24431;-47
2022/06/30 04:00:07;;;;;;;12.07;10.97;;;;;;;;;;5066092;28;24476;-48
2022/06/30 04:02:32;;;;;;;11.93;10.93;;;;;;;;;;5073165;28;24414;-46
2022/06/30 04:04:58;;;;;;;11.30;10.30;;;;;;;;;;5080583;28;25103;-46
2022/06/30 04:07:23;;;;;;;11.90;10.80;;;;;;;;;;5081006;28;24415;-47
2022/06/30 04:09:48;;;;;;;12.30;11.20;;;;;;;;;;5066160;28;24514;-47
2022/06/30 04:12:13;;;;;;;11.80;10.80;;;;;;;;;;5065067;28;24984;-47
2022/06/30 04:14:39;;;;;;;14.20;12.90;;;;;;;;;;5083617;28;24437;-46
2022/06/30 04:17:04;;;;;;;14.90;13.60;;;;;;;;;;5068066;28;24425;-47
2022/06/30 04:19:30;;;;;;;14.23;12.93;;;;;;;;;;5065729;28;24450;-46
2022/06/30 04:21:55;;;;;;;14.50;13.10;;;;;;;;;;5060353;28;24418;-47
2022/06/30 04:24:20;;;;;;;13.27;11.87;;;;;;;;;;5066533;28;24431;-47
2022/06/30 04:26:45;;;;;;;14.20;12.90;;;;;;;;;;5065498;28;24487;-47
2022/06/30 04:29:10;;;;;;;13.93;12.52;;;;;;;;;;5060705;28;27095;-46
2022/06/30 04:34:21;;;;;;;15.43;13.82;;;;;;;;;;5060587;28;24850;-47
2022/06/30 04:36:46;;;;;;;14.98;13.48;;;;;;;;;;5074158;28;24496;-46
2022/06/30 04:39:11;;;;;;;16.50;14.90;;;;;;;;;;5083217;28;24948;-46
2022/06/30 04:41:36;;;;;;;16.10;14.43;;;;;;;;;;5070900;28;25069;-46
2022/06/30 04:44:02;;;;;;;16.10;14.40;;;;;;;;;;5058768;28;24866;-46
2022/06/30 04:46:27;;;;;;;15.80;14.30;;;;;;;;;;5062335;28;24438;-48
2022/06/30 04:48:53;;;;;;;15.23;13.63;;;;;;;;;;5060733;28;24970;-49
2022/06/30 04:51:18;;;;;;;16.50;14.07;;;;;;;;;;5058344;28;24480;-47
2022/06/30 04:53:43;;;;;;;15.97;14.30;;;;;;;;;;5064173;28;24521;-47
2022/06/30 04:56:09;;;;;;;15.30;13.80;;;;;;;;;;5083148;28;24393;-47
2022/06/30 04:58:35;;;;;;;15.93;14.33;;;;;;;;;;5068641;28;25395;-47
2022/06/30 05:01:01;;;;;;;14.47;12.97;;;;;;;;;;5070829;28;24413;-47
2022/06/30 05:03:26;;;;;;;15.80;14.18;;;;;;;;;;5061120;28;24879;-47
2022/06/30 05:05:53;;;;;;;18.20;16.40;;;;;;;;;;5069503;28;24422;-47
2022/06/30 05:08:18;;;;;;;18.00;16.20;;;;;;;;;;5076717;28;24943;-48
2022/06/30 05:10:43;;;;;;;18.77;15.38;;;;;;;;;;5080404;28;24401;-47
2022/06/30 05:13:09;;;;;;;15.70;14.10;;;;;;;;;;5066995;28;24851;-47
2022/06/30 05:15:35;;;;;;;17.73;15.10;;;;;;;;;;5060449;28;24445;-47
2022/06/30 05:18:00;;;;;;;17.63;15.73;;;;;;;;;;5060595;28;24427;-47
2022/06/30 05:20:26;;;;;;;18.02;16.23;;;;;;;;;;5065828;28;24845;-47
2022/06/30 05:22:51;;;;;;;18.80;16.33;;;;;;;;;;5050976;28;25050;-46
2022/06/30 05:28:00;;;;;;;18.95;17.05;;;;;;;;;;5059796;28;24437;-46
2022/06/30 05:30:25;;;;;;;20.87;17.83;;;;;;;;;;5045424;28;24961;-46
2022/06/30 05:32:50;;;;;;;18.98;17.08;;;;;;;;;;5045791;28;24426;-47
2022/06/30 05:35:15;;;;;;;20.50;18.30;;;;;;;;;;5045760;28;24766;-47
2022/06/30 05:37:40;;;;;;;18.98;16.95;;;;;;;;;;5045395;28;24470;-47
2022/06/30 05:40:06;;;;;;;23.38;20.98;;;;;;;;;;5049601;28;24642;-47
2022/06/30 05:42:32;;;;;;;20.37;18.37;;;;;;;;;;5045394;28;24411;-47
2022/06/30 05:44:57;;;;;;;19.00;17.10;;;;;;;;;;5045577;28;24427;-47
2022/06/30 05:47:22;;;;;;;19.20;17.08;;;;;;;;;;5045534;28;24387;-47
2022/06/30 05:49:47;;;;;;;20.23;18.00;;;;;;;;;;5056695;28;24431;-47
2022/06/30 05:52:12;;;;;;;18.10;16.30;;;;;;;;;;5065301;28;24786;-46
2022/06/30 05:54:37;;;;;;;18.00;16.27;;;;;;;;;;5054635;28;24427;-46
2022/06/30 05:57:03;;;;;;;20.08;18.05;;;;;;;;;;5055357;28;24419;-47
2022/06/30 05:59:28;;;;;;;17.52;15.73;;;;;;;;;;5060102;28;24411;-47
2022/06/30 06:01:53;;;;;;;18.90;16.90;;;;;;;;;;5053752;28;24492;-47
2022/06/30 06:04:18;;;;;;;18.40;16.45;;;;;;;;;;5045546;28;24402;-47
2022/06/30 06:06:43;;;;;;;15.90;14.53;;;;;;;;;;5064578;28;24469;-47
2022/06/30 06:09:08;;;;;;;17.60;16.00;;;;;;;;;;5085075;28;24454;-48
2022/06/30 06:11:34;;;;;;;14.88;13.57;;;;;;;;;;5085275;28;24458;-46
2022/06/30 06:13:59;;;;;;;18.65;17.05;;;;;;;;;;5064639;28;24618;-46
2022/06/30 06:16:24;;;;;;;14.43;13.10;;;;;;;;;;5065392;28;24426;-47
2022/06/30 06:18:50;;;;;;;15.97;14.47;;;;;;;;;;5066108;28;24426;-46
2022/06/30 06:21:15;;;;;;;16.10;14.70;;;;;;;;;;5078824;28;24431;-47
2022/06/30 06:23:41;;;;;;;15.68;14.27;;;;;;;;;;5068493;28;24970;-47
2022/06/30 06:26:06;;;;;;;16.00;14.32;;;;;;;;;;5067986;28;24441;-47
2022/06/30 06:31:15;;;;;;;18.67;17.00;;;;;;;;;;5065694;28;24456;-45
2022/06/30 06:33:40;;;;;;;20.23;18.37;;;;;;;;;;5067198;28;24529;-46
2022/06/30 06:36:05;;;;;;;15.50;14.10;;;;;;;;;;5067944;28;24415;-46
2022/06/30 06:38:31;;;;;;;15.00;13.70;;;;;;;;;;5066430;28;24527;-46
2022/06/30 06:40:56;;;;;;;15.90;14.50;;;;;;;;;;5065386;28;24591;-46
2022/06/30 06:43:21;;;;;;;17.30;15.80;;;;;;;;;;5068474;28;24494;-47
2022/06/30 06:45:46;;;;;;;17.15;15.65;;;;;;;;;;5067117;28;24442;-46
2022/06/30 06:48:11;;;;;;;22.67;20.47;;;;;;;;;;5081317;28;24422;-46
2022/06/30 06:50:36;;;;;;;18.60;16.90;;;;;;;;;;5068110;28;24480;-46
2022/06/30 06:53:03;;;;;;;18.00;16.30;;;;;;;;;;5056166;28;24551;-47
2022/06/30 06:55:28;;;;;;;19.02;17.30;;;;;;;;;;5060107;28;24404;-47
2022/06/30 06:57:53;;;;;;;19.07;17.27;;;;;;;;;;5058593;28;24433;-47
2022/06/30 07:00:18;;;;;;;17.88;16.38;;;;;;;;;;5067060;28;24411;-47
2022/06/30 07:02:44;;;;;;;23.17;20.90;;;;;;;;;;5068029;28;24409;-47
2022/06/30 07:05:09;;;;;;;20.10;18.30;;;;;;;;;;5062582;28;24514;-47
2022/06/30 07:07:35;;;;;;;21.30;19.17;;;;;;;;;;5053327;28;25038;-47
2022/06/30 07:10:00;;;;;;;19.73;17.97;;;;;;;;;;5067715;28;24506;-46
2022/06/30 07:12:25;;;;;;;20.33;18.43;;;;;;;;;;5067367;28;24464;-46
2022/06/30 07:14:50;;;;;;;21.63;19.43;;;;;;;;;;5067538;28;24468;-46
2022/06/30 07:17:16;;;;;;;21.15;19.05;;;;;;;;;;5066338;28;24429;-46
2022/06/30 07:19:42;;;;;;;19.00;17.20;;;;;;;;;;5065960;28;24418;-46
2022/06/30 07:22:08;;;;;;;18.88;17.08;;;;;;;;;;5067320;28;24386;-46
2022/06/30 07:24:33;;;;;;;19.57;17.77;;;;;;;;;;5067445;28;24482;-46
2022/06/30 07:26:58;;;;;;;22.35;20.15;;;;;;;;;;5065858;28;24755;-46
2022/06/30 07:29:23;;;;;;;21.40;19.20;;;;;;;;;;5067392;28;24489;-46
2022/06/30 07:31:48;;;;;;;20.20;18.20;;;;;;;;;;5067764;28;24399;-46
2022/06/30 07:34:13;;;;;;;20.20;18.30;;;;;;;;;;5067470;28;25244;-46
2022/06/30 07:36:41;;;;;;;18.80;17.00;;;;;;;;;;5065168;28;24461;-47
2022/06/30 07:39:06;;;;;;;18.13;16.60;;;;;;;;;;5067248;28;24970;-47
2022/06/30 07:41:32;;;;;;;18.80;17.15;;;;;;;;;;5066882;28;24449;-46
2022/06/30 07:43:57;;;;;;;23.27;21.10;;;;;;;;;;5067175;28;24912;-47
2022/06/30 07:46:22;;;;;;;20.27;18.30;;;;;;;;;;5065644;28;24453;-47
2022/06/30 07:48:48;;;;;;;19.98;17.98;;;;;;;;;;5067220;28;24453;-47
2022/06/30 07:51:14;;;;;;;20.87;18.87;;;;;;;;;;5067412;28;24429;-47
2022/06/30 07:53:39;;;;;;;21.08;18.98;;;;;;;;;;5065866;28;24488;-47
2022/06/30 07:56:04;;;;;;;21.83;19.73;;;;;;;;;;5066346;28;24877;-46
2022/06/30 07:58:30;;;;;;;22.53;20.33;;;;;;;;;;5067028;28;24423;-46
2022/06/30 08:00:55;;;;;;;18.60;16.80;;;;;;;;;;5065177;28;24410;-46
2022/06/30 08:03:20;;;;;;;21.10;19.20;;;;;;;;;;5066540;28;24448;-46
2022/06/30 08:05:45;;;;;;;20.98;19.00;;;;;;;;;;5064815;28;24426;-46
2022/06/30 08:08:10;;;;;;;22.02;19.98;;;;;;;;;;5066556;28;24733;-46
2022/06/30 08:10:36;;;;;;;21.02;19.10;;;;;;;;;;5066348;28;24494;-46
2022/06/30 08:13:01;;;;;;;21.20;19.20;;;;;;;;;;5066523;28;24444;-47
2022/06/30 08:15:26;;;;;;;20.90;19.10;;;;;;;;;;5064053;28;24476;-47
2022/06/30 08:17:52;;;;;;;23.50;21.30;;;;;;;;;;5064513;28;24430;-47
2022/06/30 08:20:17;;;;;;;20.42;18.63;;;;;;;;;;5066665;28;24391;-47
2022/06/30 08:22:42;;;;;;;20.45;18.65;;;;;;;;;;5061882;28;24460;-46
2022/06/30 08:25:07;;;;;;;19.35;17.65;;;;;;;;;;5066456;28;24403;-46
2022/06/30 08:27:32;;;;;;;19.07;17.37;;;;;;;;;;5063814;28;24823;-46
2022/06/30 08:29:58;;;;;;;18.13;16.52;;;;;;;;;;5065326;28;24398;-46
2022/06/30 08:32:23;;;;;;;19.77;17.87;;;;;;;;;;5066278;28;24498;-46
2022/06/30 08:34:48;;;;;;;21.80;19.90;;;;;;;;;;5066052;28;24409;-45
2022/06/30 08:37:14;;;;;;;22.00;19.90;;;;;;;;;;5064381;28;24433;-46
2022/06/30 08:42:23;;;;;;;18.75;17.15;;;;;;;;;;5065851;28;24832;-45
2022/06/30 08:47:32;;;;;;;19.80;18.00;;;;;;;;;;5063856;28;24503;-46
2022/06/30 08:49:57;;;;;;;19.40;17.70;;;;;;;;;;5066139;28;24438;-47
2022/06/30 08:52:24;;;;;;;19.67;17.97;;;;;;;;;;5065411;28;24383;-46
2022/06/30 08:54:51;;;;;;;18.40;16.80;;;;;;;;;;5063116;28;24402;-46
2022/06/30 08:57:17;;;;;;;19.55;17.88;;;;;;;;;;5057750;28;25111;-46
2022/06/30 08:59:42;;;;;;;18.85;17.23;;;;;;;;;;5063446;28;24629;-47
2022/06/30 09:02:07;;;;;;;19.73;18.03;;;;;;;;;;5064840;28;24766;-46
2022/06/30 09:04:32;;;;;;;21.83;19.90;;;;;;;;;;5065115;28;24383;-46
2022/06/30 09:06:58;;;;;;;20.80;18.80;;;;;;;;;;5045609;28;24838;-46
2022/06/30 09:09:23;;;;;;;19.95;18.25;;;;;;;;;;5060328;28;24429;-47
2022/06/30 09:11:49;;;;;;;19.20;17.60;;;;;;;;;;5065253;28;24810;-47
2022/06/30 09:14:32;;;;;;;19.75;18.05;;;;;;;;;;5065309;28;24402;-46
2022/06/30 09:16:58;;;;;;;19.67;17.98;;;;;;;;;;5065236;28;24410;-45
2022/06/30 09:19:23;;;;;;;20.37;18.57;;;;;;;;;;5063152;28;24431;-46
2022/06/30 09:22:04;;;;;;;20.48;18.65;;;;;;;;;;5065784;28;24883;-46
2022/06/30 09:24:29;;;;;;;20.10;18.30;;;;;;;;;;5065492;28;24406;-46
2022/06/30 09:27:10;;;;;;;19.80;18.20;;;;;;;;;;5064957;28;24841;-47
2022/06/30 09:30:05;;;;;;;21.95;19.98;;;;;;;;;;5063645;28;24398;-47
2022/06/30 09:32:48;;;;;;;20.00;18.23;;;;;;;;;;5058712;28;24855;-46
2022/06/30 09:35:14;;;;;;;22.70;20.70;;;;;;;;;;5065527;28;24471;-47
2022/06/30 09:37:39;;;;;;;22.63;20.73;;;;;;;;;;5065100;28;24505;-47
2022/06/30 09:40:08;;;;;;;20.40;18.70;;;;;;;;;;5063774;28;24407;-47
2022/06/30 09:42:39;;;;;;;17.67;16.08;;;;;;;;;;5069250;28;24395;-47
2022/06/30 09:45:06;;;;;;;18.92;17.40;;;;;;;;;;5069102;28;24503;-47
2022/06/30 09:47:31;;;;;;;20.45;18.52;;;;;;;;;;5069512;28;24791;-47
2022/06/30 09:49:59;;;;;;;19.40;17.80;;;;;;;;;;5069111;28;24398;-47
2022/06/30 09:52:25;;;;;;;16.90;15.50;;;;;;;;;;5065929;28;24437;-47
2022/06/30 09:54:54;;;;;;;17.63;16.13;;;;;;;;;;5068714;28;24383;-47
2022/06/30 09:57:19;;;;;;;20.73;18.73;;;;;;;;;;5069258;28;24456;-47
2022/06/30 09:59:44;;;;;;;17.20;15.90;;;;;;;;;;5068822;28;25045;-47
2022/06/30 10:02:10;;;;;;;17.47;15.97;;;;;;;;;;5066596;28;25039;-47
2022/06/30 10:04:52;;;;;;;17.37;15.97;;;;;;;;;;5068796;28;24486;-48
2022/06/30 10:07:17;;;;;;;16.60;15.30;;;;;;;;;;5068969;28;24387;-47
2022/06/30 10:09:43;;;;;;;16.40;15.20;;;;;;;;;;5064898;28;24761;-47
2022/06/30 10:12:08;;;;;;;18.23;16.63;;;;;;;;;;5067542;28;24433;-47
2022/06/30 10:14:35;;;;;;;16.57;15.07;;;;;;;;;;5068599;28;24399;-46
2022/06/30 10:17:01;;;;;;;17.58;15.98;;;;;;;;;;5068676;28;24394;-47
2022/06/30 10:19:26;;;;;;;18.77;17.17;;;;;;;;;;5065979;28;24446;-47
2022/06/30 10:21:51;;;;;;;16.58;15.07;;;;;;;;;;5068092;28;24390;-47
2022/06/30 10:24:18;;;;;;;16.80;15.40;;;;;;;;;;5061649;28;24423;-47
2022/06/30 10:29:27;;;;;;;17.63;16.23;;;;;;;;;;5052425;28;24468;-47
2022/06/30 10:32:01;;;;;;;17.67;16.17;;;;;;;;;;5067141;28;24461;-46
2022/06/30 10:34:32;;;;;;;18.77;17.27;;;;;;;;;;5068397;28;24394;-47
2022/06/30 10:36:59;;;;;;;17.98;16.27;;;;;;;;;;5068374;28;24893;-47
2022/06/30 10:39:29;;;;;;;16.98;15.63;;;;;;;;;;5066302;28;24789;-47
2022/06/30 10:41:54;;;;;;;19.50;17.85;;;;;;;;;;5065780;28;24457;-47
2022/06/30 10:44:23;;;;;;;17.85;16.15;;;;;;;;;;5067956;28;24435;-47
2022/06/30 10:46:49;;;;;;;17.27;15.80;;;;;;;;;;5067715;28;24454;-47
2022/06/30 10:49:14;;;;;;;16.85;15.45;;;;;;;;;;5067950;28;24442;-47
2022/06/30 10:51:40;;;;;;;17.30;15.80;;;;;;;;;;5065022;28;24426;-46
2022/06/30 10:54:06;;;;;;;16.90;15.60;;;;;;;;;;5067307;28;24410;-47
2022/06/30 10:56:55;;;;;;;17.52;16.10;;;;;;;;;;5068047;28;24985;-47
2022/06/30 10:59:30;;;;;;;19.57;17.73;;;;;;;;;;5064151;28;24454;-47
2022/06/30 11:02:07;;;;;;;16.00;14.70;;;;;;;;;;5065293;28;24505;-46
2022/06/30 11:04:32;;;;;;;17.25;15.80;;;;;;;;;;5067829;28;24524;-47
2022/06/30 11:07:17;;;;;;;17.47;16.07;;;;;;;;;;5048470;28;24534;-46
2022/06/30 11:09:47;;;;;;;16.98;15.57;;;;;;;;;;5047011;28;24415;-46
2022/06/30 11:12:41;;;;;;;16.98;15.57;;;;;;;;;;5058347;28;24423;-46
2022/06/30 11:15:08;;;;;;;16.90;15.60;;;;;;;;;;5067087;28;25094;-46
2022/06/30 11:17:37;;;;;;;17.48;16.02;;;;;;;;;;5067269;28;24483;-47
2022/06/30 11:20:03;;;;;;;17.75;16.13;;;;;;;;;;5067375;28;24397;-47
2022/06/30 11:22:29;;;;;;;16.55;15.05;;;;;;;;;;5064737;28;24454;-47
2022/06/30 11:24:55;;;;;;;16.07;14.77;;;;;;;;;;5067304;28;24827;-47
2022/06/30 11:27:22;;;;;;;16.77;15.38;;;;;;;;;;5067482;28;24406;-47
2022/06/30 11:29:57;;;;;;;15.60;14.40;;;;;;;;;;5067125;28;24387;-47
2022/06/30 11:32:22;;;;;;;14.70;13.40;;;;;;;;;;5064991;28;24422;-47
2022/06/30 11:34:47;;;;;;;13.63;12.63;;;;;;;;;;5067240;28;24460;-47
2022/06/30 11:37:19;;;;;;;15.05;13.85;;;;;;;;;;5067234;28;24821;-47
2022/06/30 11:39:44;;;;;;;14.98;13.77;;;;;;;;;;5067064;28;25003;-47
2022/06/30 11:42:11;;;;;;;14.90;13.80;;;;;;;;;;5066746;28;24395;-47
2022/06/30 11:44:38;;;;;;;15.35;14.15;;;;;;;;;;5064227;28;24511;-47
2022/06/30 11:47:04;;;;;;;16.20;14.73;;;;;;;;;;5066891;28;25041;-47
2022/06/30 11:49:46;;;;;;;17.90;16.40;;;;;;;;;;5066897;28;24947;-47
2022/06/30 11:52:15;;;;;;;18.73;17.33;;;;;;;;;;5066431;28;24405;-47
2022/06/30 11:54:41;;;;;;;16.90;15.50;;;;;;;;;;5063843;28;24442;-47
2022/06/30 11:57:07;;;;;;;17.15;15.85;;;;;;;;;;5066523;28;24522;-47
2022/06/30 11:59:32;;;;;;;18.20;16.80;;;;;;;;;;5066422;28;24472;-47
2022/06/30 12:01:58;;;;;;;16.93;15.63;;;;;;;;;;5066302;28;24390;-47
2022/06/30 12:04:23;;;;;;;16.00;14.70;;;;;;;;;;5063468;28;24426;-47
2022/06/30 12:06:48;;;;;;;17.00;15.68;;;;;;;;;;5066479;28;24399;-47
2022/06/30 12:09:13;;;;;;;17.08;15.75;;;;;;;;;;5066598;28;24944;-47
2022/06/30 12:11:38;;;;;;;17.30;15.90;;;;;;;;;;5066765;28;24449;-47
2022/06/30 12:14:04;;;;;;;19.50;17.70;;;;;;;;;;5064052;28;24446;-47
2022/06/30 12:16:29;;;;;;;19.93;18.20;;;;;;;;;;5066160;28;24871;-47
2022/06/30 12:18:54;;;;;;;20.43;18.73;;;;;;;;;;5066151;28;25005;-47
2022/06/30 12:21:20;;;;;;;20.27;18.50;;;;;;;;;;5066288;28;24403;-47
2022/06/30 12:23:45;;;;;;;20.00;18.50;;;;;;;;;;5065737;28;24395;-47
2022/06/30 12:26:11;;;;;;;19.67;18.17;;;;;;;;;;5059241;28;25313;-47
2022/06/30 12:28:43;;;;;;;19.50;17.90;;;;;;;;;;5063896;28;24582;-46
2022/06/30 12:31:08;;;;;;;19.88;18.38;;;;;;;;;;5066078;28;24394;-47
2022/06/30 12:33:39;;;;;;;21.67;19.88;;;;;;;;;;5065997;28;24399;-47
2022/06/30 12:36:05;;;;;;;20.30;18.70;;;;;;;;;;5063857;28;25007;-47
2022/06/30 12:38:30;;;;;;;20.27;18.67;;;;;;;;;;5066193;28;24402;-47
2022/06/30 12:40:55;;;;;;;20.27;18.67;;;;;;;;;;5065795;28;24415;-47
2022/06/30 12:43:20;;;;;;;20.20;18.60;;;;;;;;;;5065669;28;24813;-47
2022/06/30 12:45:48;;;;;;;20.40;18.80;;;;;;;;;;5062459;28;24492;-47
2022/06/30 12:48:15;;;;;;;21.70;20.00;;;;;;;;;;5065950;28;24452;-47
2022/06/30 12:50:41;;;;;;;19.92;18.42;;;;;;;;;;5066147;28;24471;-47
2022/06/30 12:53:23;;;;;;;23.23;21.02;;;;;;;;;;5065768;28;24422;-47
2022/06/30 12:56:09;;;;;;;22.38;20.67;;;;;;;;;;5064184;28;24422;-47
2022/06/30 12:58:49;;;;;;;22.63;20.63;;;;;;;;;;5061918;28;24491;-47
2022/06/30 13:01:19;;;;;;;22.60;20.70;;;;;;;;;;5046133;28;24794;-47
2022/06/30 13:03:47;;;;;;;20.80;19.10;;;;;;;;;;5051986;28;24398;-47
2022/06/30 13:06:12;;;;;;;21.10;19.40;;;;;;;;;;5061000;28;24418;-47
2022/06/30 13:08:38;;;;;;;21.45;19.60;;;;;;;;;;5064095;28;24471;-47
2022/06/30 13:11:06;;;;;;;21.50;19.70;;;;;;;;;;5065638;28;24937;-47
2022/06/30 13:13:31;;;;;;;20.25;18.70;;;;;;;;;;5065443;28;24406;-47
2022/06/30 13:15:56;;;;;;;18.10;16.63;;;;;;;;;;5067492;28;24430;-47
2022/06/30 13:18:22;;;;;;;19.30;17.80;;;;;;;;;;5055563;28;25049;-47
2022/06/30 13:20:47;;;;;;;18.03;16.70;;;;;;;;;;5060958;28;25016;-46
2022/06/30 13:23:12;;;;;;;18.80;17.30;;;;;;;;;;5058537;28;24422;-45
2022/06/30 13:25:37;;;;;;;17.40;16.07;;;;;;;;;;5057300;28;24431;-46
2022/06/30 13:28:02;;;;;;;17.83;16.33;;;;;;;;;;5071920;28;24494;-46
2022/06/30 13:30:27;;;;;;;17.10;15.80;;;;;;;;;;5067697;28;24581;-46
2022/06/30 13:32:53;;;;;;;17.20;15.90;;;;;;;;;;5056544;28;24794;-46
2022/06/30 13:35:18;;;;;;;17.40;16.10;;;;;;;;;;5064825;28;24540;-46
2022/06/30 13:37:43;;;;;;;16.53;15.23;;;;;;;;;;5072360;28;24863;-45
2022/06/30 13:40:08;;;;;;;15.55;14.45;;;;;;;;;;5063027;28;24419;-47
2022/06/30 13:42:33;;;;;;;15.90;14.77;;;;;;;;;;5067266;28;24948;-47
2022/06/30 13:44:58;;;;;;;16.10;15.00;;;;;;;;;;5059007;28;24550;-47
2022/06/30 13:47:24;;;;;;;16.60;15.20;;;;;;;;;;5055620;28;24541;-46
2022/06/30 13:49:49;;;;;;;16.95;15.65;;;;;;;;;;5059191;28;24987;-46
2022/06/30 13:52:14;;;;;;;15.88;14.57;;;;;;;;;;5058481;28;24446;-47
2022/06/30 13:54:39;;;;;;;15.37;14.13;;;;;;;;;;5057903;28;24415;-46
2022/06/30 13:57:07;;;;;;;15.27;14.07;;;;;;;;;;5066918;28;24507;-47
2022/06/30 13:59:32;;;;;;;16.75;15.35;;;;;;;;;;5070540;28;24819;-46
2022/06/30 14:01:57;;;;;;;16.15;14.85;;;;;;;;;;5070363;28;24987;-47
2022/06/30 14:04:22;;;;;;;15.60;14.40;;;;;;;;;;5070899;28;24419;-47
2022/06/30 14:06:48;;;;;;;15.90;14.70;;;;;;;;;;5053459;28;24422;-46
2022/06/30 14:09:13;;;;;;;16.50;15.20;;;;;;;;;;5063253;28;24534;-46
2022/06/30 14:11:38;;;;;;;16.90;15.50;;;;;;;;;;5068463;28;24525;-47
2022/06/30 14:14:03;;;;;;;15.83;14.73;;;;;;;;;;5067398;28;24462;-47
2022/06/30 14:16:28;;;;;;;15.40;14.20;;;;;;;;;;5064443;28;24807;-47
2022/06/30 14:18:53;;;;;;;16.17;14.97;;;;;;;;;;5063082;28;24532;-46
2022/06/30 14:21:19;;;;;;;15.20;14.00;;;;;;;;;;5071385;28;24773;-47
2022/06/30 14:23:44;;;;;;;15.70;14.48;;;;;;;;;;5068041;28;24711;-47
2022/06/30 14:26:10;;;;;;;15.77;14.27;;;;;;;;;;5065404;28;24433;-47
2022/06/30 14:28:36;;;;;;;16.00;14.80;;;;;;;;;;5068576;28;24512;-47
2022/06/30 14:31:01;;;;;;;16.58;15.18;;;;;;;;;;5070954;28;24434;-47
2022/06/30 14:33:26;;;;;;;15.87;14.60;;;;;;;;;;5077174;28;24427;-46